Time;durP1;ratioP1;P1;durP2;ratioP2;P2;SDS_P1;SDS_P2;PMS_P1;PMS_P2;Temp;Humidity;BMP_temperature;BMP_pressure;BME280_temperature;BME280_humidity;BME280_pressure;Samples;Min_cycle;Max_cycle;Signal;HPM_P1;HPM_P2
2023/08/16 00:00:00;;;;;;;1.60;0.60;;;23.20;1.00;;;;;;5077902;28;20656;-65
2023/08/16 00:02:27;;;;;;;1.10;0.60;;;23.20;1.00;;;;;;5074561;28;20489;-65
2023/08/16 00:04:54;;;;;;;0.80;0.60;;;23.20;1.00;;;;;;5075629;28;20870;-65
2023/08/16 00:07:23;;;;;;;1.15;1.00;;;23.20;1.00;;;;;;5095978;28;20486;-66
2023/08/16 00:09:51;;;;;;;1.30;0.70;;;23.20;1.00;;;;;;5090225;28;20508;-67
2023/08/16 00:12:18;;;;;;;1.20;0.60;;;23.20;1.00;;;;;;5096203;28;20476;-67
2023/08/16 00:14:45;;;;;;;1.00;0.60;;;23.10;1.00;;;;;;5088858;28;20443;-66
2023/08/16 00:17:12;;;;;;;0.80;0.60;;;23.10;1.00;;;;;;5075304;28;20461;-65
2023/08/16 00:19:40;;;;;;;1.40;0.60;;;23.00;1.00;;;;;;5078808;28;20488;-66
2023/08/16 00:22:08;;;;;;;0.90;0.70;;;23.00;1.00;;;;;;5074638;28;20477;-67
2023/08/16 00:24:36;;;;;;;0.98;0.60;;;23.00;1.00;;;;;;5077719;28;20442;-67
2023/08/16 00:27:04;;;;;;;0.80;0.60;;;23.10;1.00;;;;;;5075189;28;20526;-67
2023/08/16 00:29:31;;;;;;;1.20;0.70;;;23.20;1.00;;;;;;5077985;28;20424;-65
2023/08/16 00:32:00;;;;;;;0.90;0.60;;;23.20;1.00;;;;;;5075923;28;21328;-66
2023/08/16 00:34:28;;;;;;;1.20;0.75;;;23.10;1.00;;;;;;5088181;28;20426;-66
2023/08/16 00:36:55;;;;;;;1.10;0.70;;;23.00;1.00;;;;;;5094493;28;20479;-66
2023/08/16 00:39:22;;;;;;;0.90;0.65;;;22.90;1.00;;;;;;5088723;28;20515;-65
2023/08/16 00:41:50;;;;;;;1.10;0.70;;;22.80;1.00;;;;;;5094185;28;20525;-65
2023/08/16 00:44:17;;;;;;;0.90;0.60;;;22.80;1.00;;;;;;5091294;28;20770;-65
2023/08/16 00:46:44;;;;;;;1.35;0.70;;;22.80;1.00;;;;;;5094971;28;20417;-66
2023/08/16 00:49:12;;;;;;;0.90;0.70;;;22.80;1.00;;;;;;5092979;28;20738;-66
2023/08/16 00:51:39;;;;;;;1.40;0.70;;;22.80;1.00;;;;;;5095990;28;20434;-66
2023/08/16 00:54:07;;;;;;;1.23;0.70;;;22.70;6.40;;;;;;5092847;28;20451;-63
2023/08/16 00:56:35;;;;;;;1.25;0.70;;;22.70;14.30;;;;;;5095355;28;20436;-62
2023/08/16 00:59:05;;;;;;;1.20;0.70;;;22.70;28.00;;;;;;5089580;28;20479;-65
2023/08/16 01:01:32;;;;;;;1.27;0.70;;;22.60;60.20;;;;;;5095555;28;20425;-65
2023/08/16 01:03:59;;;;;;;1.00;0.65;;;22.70;30.10;;;;;;5078184;28;20762;-65
2023/08/16 01:06:26;;;;;;;1.20;0.70;;;22.70;21.80;;;;;;5073522;28;20518;-66
2023/08/16 01:08:54;;;;;;;1.10;0.70;;;22.60;26.40;;;;;;5077399;28;20488;-64
2023/08/16 01:11:29;;;;;;;1.10;0.70;;;22.50;34.70;;;;;;5074398;28;20435;-64
2023/08/16 01:14:02;;;;;;;1.10;0.70;;;22.20;78.60;;;;;;5093663;28;20487;-66
2023/08/16 01:16:31;;;;;;;1.00;0.77;;;22.20;99.90;;;;;;5093111;28;20437;-66
2023/08/16 01:18:59;;;;;;;0.90;0.70;;;22.20;95.30;;;;;;5074523;28;20435;-66
2023/08/16 01:21:27;;;;;;;1.05;0.80;;;22.20;94.20;;;;;;5075376;28;20435;-66
2023/08/16 01:24:14;;;;;;;1.50;0.80;;;22.20;94.10;;;;;;5095023;28;20430;-67
2023/08/16 01:26:43;;;;;;;1.30;0.70;;;22.20;99.90;;;;;;5086942;28;20738;-66
2023/08/16 01:29:11;;;;;;;1.70;0.70;;;22.20;99.90;;;;;;5074968;28;20465;-67
2023/08/16 01:31:38;;;;;;;1.00;0.70;;;22.20;99.90;;;;;;5074409;28;20435;-67
2023/08/16 01:34:05;;;;;;;1.50;0.80;;;22.20;99.90;;;;;;5074982;28;20850;-67
2023/08/16 01:36:32;;;;;;;1.08;0.70;;;22.20;99.90;;;;;;5083465;28;20434;-67
2023/08/16 01:38:59;;;;;;;0.90;0.80;;;22.20;99.90;;;;;;5095306;28;20480;-66
2023/08/16 01:41:32;;;;;;;1.02;0.70;;;22.20;99.90;;;;;;5083101;28;20427;-65
2023/08/16 01:44:01;;;;;;;1.20;0.70;;;22.10;99.90;;;;;;5074705;28;20485;-67
2023/08/16 01:46:29;;;;;;;1.20;0.80;;;22.10;99.90;;;;;;5078279;28;20439;-67
2023/08/16 01:48:57;;;;;;;1.30;0.80;;;22.10;99.90;;;;;;5074710;28;20506;-67
2023/08/16 01:51:25;;;;;;;0.98;0.80;;;22.00;99.90;;;;;;5075024;28;20443;-67
2023/08/16 01:53:53;;;;;;;1.10;0.80;;;21.90;99.90;;;;;;5074693;28;20774;-66
2023/08/16 01:56:20;;;;;;;1.00;0.80;;;21.80;99.90;;;;;;5086445;28;20781;-64
2023/08/16 01:58:48;;;;;;;1.20;0.80;;;21.80;99.90;;;;;;5094784;28;20418;-66
2023/08/16 02:01:16;;;;;;;1.42;0.80;;;21.80;99.90;;;;;;5088149;28;20434;-66
2023/08/16 02:03:43;;;;;;;1.30;0.80;;;21.80;99.90;;;;;;5094963;28;20498;-67
2023/08/16 02:06:10;;;;;;;1.80;0.90;;;21.70;99.90;;;;;;5092735;28;20845;-66
2023/08/16 02:08:37;;;;;;;1.70;0.90;;;21.70;99.90;;;;;;5092744;28;20426;-67
2023/08/16 02:11:04;;;;;;;1.17;0.80;;;21.60;99.90;;;;;;5073593;28;20435;-66
2023/08/16 02:13:31;;;;;;;1.02;0.90;;;21.70;99.90;;;;;;5075670;28;20439;-65
2023/08/16 02:16:01;;;;;;;1.20;0.90;;;21.60;99.90;;;;;;5091413;28;20433;-65
2023/08/16 02:18:31;;;;;;;1.23;0.90;;;21.70;99.90;;;;;;5092335;28;20527;-65
2023/08/16 02:20:58;;;;;;;1.20;0.90;;;21.60;99.90;;;;;;5091215;28;20893;-65
2023/08/16 02:23:25;;;;;;;1.45;1.00;;;21.60;99.90;;;;;;5092596;28;20422;-65
2023/08/16 02:25:52;;;;;;;1.70;0.90;;;21.50;99.90;;;;;;5092623;28;20745;-66
2023/08/16 02:28:20;;;;;;;1.00;0.80;;;21.50;99.90;;;;;;5090588;28;20438;-66
2023/08/16 02:30:47;;;;;;;1.30;0.93;;;21.50;99.90;;;;;;5073522;28;20431;-66
2023/08/16 02:33:14;;;;;;;1.25;0.80;;;21.50;99.90;;;;;;5077557;28;20493;-66
2023/08/16 02:35:43;;;;;;;1.88;0.80;;;21.60;99.90;;;;;;5074572;28;20849;-64
2023/08/16 02:38:10;;;;;;;1.20;0.90;;;21.50;99.90;;;;;;5077733;28;20487;-65
2023/08/16 02:40:37;;;;;;;1.00;0.80;;;21.50;99.90;;;;;;5074826;28;20423;-66
2023/08/16 02:43:04;;;;;;;2.22;0.80;;;21.60;99.90;;;;;;5072776;28;20431;-64
2023/08/16 02:45:31;;;;;;;0.95;0.80;;;21.60;99.90;;;;;;5074158;28;20484;-65
2023/08/16 02:47:59;;;;;;;2.03;0.80;;;21.50;99.90;;;;;;5078830;28;20438;-63
2023/08/16 02:50:26;;;;;;;1.00;0.70;;;21.50;99.90;;;;;;5094951;28;20479;-63
2023/08/16 02:52:55;;;;;;;1.10;0.70;;;21.50;99.90;;;;;;5089640;28;20433;-65
2023/08/16 02:55:22;;;;;;;1.75;0.80;;;21.50;99.90;;;;;;5094843;28;20833;-63
2023/08/16 02:57:48;;;;;;;1.50;0.82;;;21.50;99.90;;;;;;5089566;28;20920;-65
2023/08/16 03:00:16;;;;;;;1.10;0.80;;;21.50;99.90;;;;;;5094195;28;20440;-63
2023/08/16 03:02:43;;;;;;;1.50;0.80;;;21.50;99.90;;;;;;5081066;28;20425;-65
2023/08/16 03:05:10;;;;;;;1.10;0.80;;;21.50;99.90;;;;;;5093565;28;20418;-65
2023/08/16 03:07:37;;;;;;;1.60;0.90;;;21.60;99.90;;;;;;5082776;28;20423;-65
2023/08/16 03:10:07;;;;;;;1.30;0.80;;;21.60;99.90;;;;;;5074731;28;20445;-65
2023/08/16 03:12:34;;;;;;;1.10;0.80;;;21.60;99.90;;;;;;5086680;28;20509;-64
2023/08/16 03:15:01;;;;;;;1.13;0.80;;;21.50;99.90;;;;;;5097888;28;20494;-64
2023/08/16 03:17:28;;;;;;;1.10;0.80;;;21.50;99.90;;;;;;5092953;28;20422;-64
2023/08/16 03:19:55;;;;;;;1.00;0.80;;;21.40;99.90;;;;;;5096112;28;20425;-65
2023/08/16 03:22:22;;;;;;;1.60;0.80;;;21.40;99.90;;;;;;5077904;28;20738;-65
2023/08/16 03:24:49;;;;;;;1.05;0.80;;;21.40;99.90;;;;;;5074600;28;20423;-64
2023/08/16 03:27:18;;;;;;;1.30;0.80;;;21.30;99.90;;;;;;5088400;28;20423;-64
2023/08/16 03:29:45;;;;;;;1.30;0.88;;;21.30;99.90;;;;;;5095123;28;20460;-65
2023/08/16 03:32:11;;;;;;;1.10;0.80;;;21.30;99.90;;;;;;5091560;28;20621;-63
2023/08/16 03:34:39;;;;;;;1.27;0.80;;;21.20;99.90;;;;;;5094897;28;20414;-64
2023/08/16 03:37:05;;;;;;;0.93;0.70;;;21.30;99.90;;;;;;5093272;28;20439;-65
2023/08/16 03:39:32;;;;;;;1.10;0.80;;;21.30;99.90;;;;;;5094422;28;20445;-64
2023/08/16 03:41:59;;;;;;;1.10;0.80;;;21.30;99.90;;;;;;5094900;28;20479;-63
2023/08/16 03:44:28;;;;;;;1.85;0.90;;;21.30;99.90;;;;;;5094682;28;21132;-63
2023/08/16 03:46:56;;;;;;;1.10;0.80;;;21.30;99.90;;;;;;5076832;28;20472;-63
2023/08/16 03:49:23;;;;;;;1.10;0.80;;;21.20;99.90;;;;;;5079815;28;20684;-64
2023/08/16 03:51:51;;;;;;;0.90;0.80;;;21.30;99.90;;;;;;5076647;28;20493;-65
2023/08/16 03:54:18;;;;;;;1.70;0.80;;;21.30;99.90;;;;;;5078033;28;20493;-65
2023/08/16 03:56:45;;;;;;;1.25;0.85;;;21.30;99.90;;;;;;5097660;28;20476;-63
2023/08/16 03:59:12;;;;;;;1.10;0.80;;;21.30;99.90;;;;;;5091496;28;20428;-63
2023/08/16 04:01:40;;;;;;;1.10;0.70;;;21.40;99.90;;;;;;5097489;28;20413;-64
2023/08/16 04:04:07;;;;;;;1.00;0.80;;;21.40;99.90;;;;;;5091623;28;20441;-64
2023/08/16 04:06:34;;;;;;;1.30;0.80;;;21.50;99.90;;;;;;5097493;28;20475;-64
2023/08/16 04:09:01;;;;;;;1.80;0.70;;;21.60;99.90;;;;;;5090620;28;20438;-63
2023/08/16 04:11:28;;;;;;;1.00;0.80;;;21.50;99.90;;;;;;5096804;28;20430;-64
2023/08/16 04:13:55;;;;;;;1.10;0.85;;;21.40;99.90;;;;;;5092707;28;20925;-66
2023/08/16 04:16:22;;;;;;;0.90;0.70;;;21.40;99.90;;;;;;5097345;28;20481;-65
2023/08/16 04:18:53;;;;;;;1.10;0.70;;;21.40;99.90;;;;;;5089874;28;20438;-64
2023/08/16 04:21:20;;;;;;;1.00;0.70;;;21.40;99.90;;;;;;5096501;28;20426;-65
2023/08/16 04:23:47;;;;;;;0.85;0.70;;;21.30;99.90;;;;;;5087942;28;20429;-64
2023/08/16 04:26:14;;;;;;;1.27;0.80;;;21.30;99.90;;;;;;5095754;28;20817;-64
2023/08/16 04:28:40;;;;;;;1.60;0.70;;;21.30;99.90;;;;;;5090969;28;20430;-66
2023/08/16 04:31:07;;;;;;;1.20;0.70;;;21.20;91.60;;;;;;5096097;28;20421;-64
2023/08/16 04:33:34;;;;;;;2.30;0.90;;;21.00;99.90;;;;;;5085583;28;20465;-64
2023/08/16 04:36:03;;;;;;;1.17;0.80;;;20.90;99.90;;;;;;5075306;28;21042;-65
2023/08/16 04:38:30;;;;;;;1.90;0.80;;;20.80;99.90;;;;;;5083738;28;20483;-64
2023/08/16 04:40:57;;;;;;;1.20;0.90;;;20.70;99.90;;;;;;5094690;28;20417;-64
2023/08/16 04:43:24;;;;;;;1.92;0.80;;;20.60;99.90;;;;;;5077654;28;20441;-64
2023/08/16 04:45:51;;;;;;;1.10;0.80;;;20.50;99.90;;;;;;5073493;28;20431;-66
2023/08/16 04:48:18;;;;;;;1.50;0.80;;;20.50;99.90;;;;;;5085708;28;20471;-65
2023/08/16 04:50:45;;;;;;;41.50;3.93;;;20.60;99.90;;;;;;5093893;28;20430;-65
2023/08/16 04:53:14;;;;;;;4.00;0.80;;;20.80;99.90;;;;;;5088718;28;20430;-63
2023/08/16 04:55:40;;;;;;;1.00;0.70;;;20.80;99.90;;;;;;5084439;28;20438;-63
2023/08/16 04:58:07;;;;;;;1.10;0.75;;;20.70;99.90;;;;;;5072321;28;20427;-63
2023/08/16 05:00:34;;;;;;;1.10;0.80;;;20.80;99.90;;;;;;5080965;28;20418;-63
2023/08/16 05:03:01;;;;;;;1.15;0.80;;;20.90;99.90;;;;;;5092461;28;20514;-63
2023/08/16 05:05:28;;;;;;;1.20;0.80;;;21.00;99.90;;;;;;5093894;28;20483;-64
2023/08/16 05:07:55;;;;;;;1.98;0.80;;;21.10;99.90;;;;;;5091771;28;20538;-64
2023/08/16 05:10:24;;;;;;;1.40;0.90;;;21.10;99.90;;;;;;5092734;28;20422;-65
2023/08/16 05:12:51;;;;;;;0.90;0.70;;;21.20;99.90;;;;;;5092902;28;20473;-65
2023/08/16 05:15:18;;;;;;;1.35;0.90;;;21.30;99.90;;;;;;5094175;28;20426;-64
2023/08/16 05:17:45;;;;;;;1.10;0.80;;;21.30;99.90;;;;;;5091445;28;20459;-64
2023/08/16 05:20:12;;;;;;;1.20;0.90;;;21.30;99.90;;;;;;5094615;28;20476;-63
2023/08/16 05:22:39;;;;;;;2.30;1.00;;;21.40;99.90;;;;;;5078991;28;20428;-64
2023/08/16 05:25:07;;;;;;;1.20;0.90;;;21.30;98.30;;;;;;5074001;28;20423;-64
2023/08/16 05:27:35;;;;;;;1.25;1.00;;;21.30;99.90;;;;;;5073718;28;20698;-64
2023/08/16 05:30:03;;;;;;;2.22;1.00;;;21.20;99.90;;;;;;5073527;28;20934;-63
2023/08/16 05:32:30;;;;;;;1.60;0.90;;;21.20;99.90;;;;;;5091295;28;20740;-63
2023/08/16 05:34:57;;;;;;;1.70;0.90;;;21.30;99.90;;;;;;5090567;28;20434;-63
2023/08/16 05:37:24;;;;;;;2.10;0.90;;;21.40;99.90;;;;;;5075627;28;20863;-64
2023/08/16 05:39:51;;;;;;;2.30;1.00;;;21.50;99.90;;;;;;5076294;28;20423;-65
2023/08/16 05:42:18;;;;;;;3.53;1.00;;;21.50;99.90;;;;;;5076605;28;20434;-64
2023/08/16 05:44:47;;;;;;;1.40;1.00;;;21.50;98.40;;;;;;5075483;28;20450;-66
2023/08/16 05:47:14;;;;;;;2.00;1.00;;;21.50;96.40;;;;;;5090226;28;20728;-65
2023/08/16 05:49:40;;;;;;;1.30;0.90;;;21.50;97.60;;;;;;5092224;28;20898;-65
2023/08/16 05:52:07;;;;;;;1.17;0.90;;;21.60;99.90;;;;;;5072444;28;20936;-64
2023/08/16 05:54:34;;;;;;;1.90;1.00;;;21.70;92.90;;;;;;5072173;28;20489;-63
2023/08/16 05:57:01;;;;;;;1.70;1.10;;;21.80;57.60;;;;;;5072143;28;20459;-62
2023/08/16 05:59:28;;;;;;;1.70;1.00;;;21.90;44.40;;;;;;5073514;28;20558;-62
2023/08/16 06:01:57;;;;;;;1.80;1.20;;;22.00;47.70;;;;;;5079451;28;20470;-64
2023/08/16 06:04:25;;;;;;;1.65;0.90;;;22.20;29.90;;;;;;5074394;28;20436;-64
2023/08/16 06:06:52;;;;;;;1.20;0.90;;;22.30;15.00;;;;;;5076222;28;20433;-64
2023/08/16 06:09:19;;;;;;;2.30;1.20;;;22.40;4.00;;;;;;5085031;28;20437;-64
2023/08/16 06:11:46;;;;;;;1.20;0.90;;;22.50;1.00;;;;;;5072245;28;20423;-62
2023/08/16 06:14:13;;;;;;;1.58;0.93;;;22.60;1.00;;;;;;5074130;28;20892;-62
2023/08/16 06:16:40;;;;;;;2.47;0.90;;;22.60;6.20;;;;;;5084587;28;20473;-65
2023/08/16 06:19:10;;;;;;;2.40;0.90;;;22.70;1.00;;;;;;5070519;28;20480;-64
2023/08/16 06:21:37;;;;;;;1.05;0.80;;;22.70;1.00;;;;;;5081329;28;20430;-64
2023/08/16 06:24:06;;;;;;;1.90;0.90;;;22.60;1.00;;;;;;5092968;28;20553;-64
2023/08/16 06:26:33;;;;;;;1.30;0.90;;;22.60;6.00;;;;;;5092086;28;20487;-65
2023/08/16 06:29:00;;;;;;;1.15;0.90;;;22.70;1.00;;;;;;5090867;28;20818;-65
2023/08/16 06:31:27;;;;;;;1.80;0.90;;;22.70;1.00;;;;;;5074387;28;20434;-63
2023/08/16 06:33:54;;;;;;;1.60;0.90;;;22.70;1.00;;;;;;5072562;28;20927;-63
2023/08/16 06:36:22;;;;;;;1.92;1.10;;;22.60;1.00;;;;;;5088341;28;20425;-62
2023/08/16 06:38:49;;;;;;;2.40;1.02;;;22.60;1.00;;;;;;5091302;28;20462;-62
2023/08/16 06:41:16;;;;;;;1.40;0.90;;;22.60;1.00;;;;;;5085952;28;20437;-62
2023/08/16 06:43:43;;;;;;;1.40;0.90;;;22.60;1.00;;;;;;5091828;28;20424;-62
2023/08/16 06:46:11;;;;;;;1.15;0.90;;;22.60;1.00;;;;;;5088652;28;20430;-63
2023/08/16 06:48:38;;;;;;;1.35;1.00;;;22.60;1.00;;;;;;5096740;28;20425;-62
2023/08/16 06:51:06;;;;;;;1.30;1.10;;;22.60;1.00;;;;;;5096353;28;20418;-63
2023/08/16 06:53:38;;;;;;;3.20;1.23;;;22.70;1.00;;;;;;5096165;28;20507;-62
2023/08/16 06:56:05;;;;;;;2.00;1.13;;;22.70;1.00;;;;;;5096587;28;20432;-63
2023/08/16 06:58:32;;;;;;;2.20;1.10;;;22.70;1.00;;;;;;5094725;28;20900;-63
2023/08/16 07:00:59;;;;;;;2.00;1.20;;;22.60;1.00;;;;;;5095819;28;20509;-65
2023/08/16 07:03:26;;;;;;;3.20;1.40;;;22.60;1.00;;;;;;5095317;28;20463;-63
2023/08/16 07:05:54;;;;;;;1.98;1.20;;;22.80;1.00;;;;;;5096041;28;20410;-67
2023/08/16 07:08:21;;;;;;;1.50;1.20;;;22.80;1.00;;;;;;5084013;28;20428;-61
2023/08/16 07:10:50;;;;;;;1.92;1.10;;;23.00;1.00;;;;;;5075173;28;20476;-60
2023/08/16 07:13:17;;;;;;;1.95;1.30;;;23.00;1.00;;;;;;5079987;28;20868;-62
2023/08/16 07:15:46;;;;;;;2.53;1.23;;;23.10;1.00;;;;;;5096108;28;20425;-63
2023/08/16 07:18:13;;;;;;;1.60;1.20;;;23.00;1.00;;;;;;5086649;28;20836;-60
2023/08/16 07:20:40;;;;;;;2.30;1.25;;;22.90;1.00;;;;;;5073826;28;20423;-61
2023/08/16 07:23:07;;;;;;;2.10;1.20;;;23.00;1.00;;;;;;5079128;28;20431;-61
2023/08/16 07:25:35;;;;;;;1.40;1.20;;;23.00;1.00;;;;;;5073572;28;20920;-61
2023/08/16 07:28:04;;;;;;;1.60;1.17;;;23.10;1.00;;;;;;5077631;28;20501;-61
2023/08/16 07:30:31;;;;;;;1.40;1.00;;;23.30;1.00;;;;;;5093561;28;20544;-62
2023/08/16 07:32:58;;;;;;;2.10;1.10;;;23.50;1.00;;;;;;5090324;28;20512;-61
2023/08/16 07:35:25;;;;;;;1.80;1.30;;;23.60;1.00;;;;;;5106275;28;20440;-62
2023/08/16 07:37:52;;;;;;;1.60;1.00;;;23.50;1.00;;;;;;5111528;28;20436;-62
2023/08/16 07:40:19;;;;;;;1.70;1.10;;;23.60;1.00;;;;;;5107053;28;20500;-62
2023/08/16 07:42:46;;;;;;;2.33;1.10;;;23.70;1.00;;;;;;5116233;28;20424;-63
2023/08/16 07:45:15;;;;;;;1.70;1.20;;;23.90;1.00;;;;;;5106938;28;20895;-63
2023/08/16 07:47:42;;;;;;;1.90;1.20;;;24.00;1.00;;;;;;5088429;28;20435;-63
2023/08/16 07:50:10;;;;;;;1.60;1.10;;;24.10;1.00;;;;;;5076318;28;20415;-65
2023/08/16 07:52:36;;;;;;;2.10;1.10;;;24.20;1.00;;;;;;5076298;28;20525;-64
2023/08/16 07:55:04;;;;;;;2.10;1.30;;;24.30;1.00;;;;;;5076114;28;20485;-62
2023/08/16 08:00:17;;;;;;;1.85;1.10;;;24.20;1.00;;;;;;5070129;28;20416;-59
2023/08/16 08:02:44;;;;;;;3.20;1.30;;;24.40;1.00;;;;;;5073509;28;20415;-59
2023/08/16 08:05:11;;;;;;;1.33;1.00;;;24.50;99.90;;;;;;5073082;28;20423;-58
2023/08/16 08:07:39;;;;;;;1.70;1.20;;;24.50;99.90;;;;;;5072354;28;20427;-59
2023/08/16 08:10:07;;;;;;;1.25;1.02;;;24.50;99.90;;;;;;5071555;28;20442;-59
2023/08/16 08:12:33;;;;;;;1.30;1.10;;;24.60;99.90;;;;;;5071919;28;20551;-59
2023/08/16 08:15:01;;;;;;;1.40;1.10;;;24.60;99.90;;;;;;5072606;28;20711;-59
2023/08/16 08:17:29;;;;;;;2.20;1.20;;;24.80;99.90;;;;;;5074207;28;20428;-59
2023/08/16 08:19:56;;;;;;;1.85;1.30;;;24.80;99.90;;;;;;5074047;28;20485;-58
2023/08/16 08:22:23;;;;;;;2.20;1.20;;;24.80;99.90;;;;;;5072555;28;20427;-59
2023/08/16 08:24:52;;;;;;;2.97;1.17;;;24.70;99.90;;;;;;5074659;28;20431;-60
2023/08/16 08:27:19;;;;;;;2.10;1.20;;;24.80;99.90;;;;;;5073423;28;20453;-59
2023/08/16 08:29:46;;;;;;;1.40;1.25;;;24.90;99.90;;;;;;5074357;28;20719;-59
2023/08/16 08:32:13;;;;;;;1.40;1.20;;;25.10;41.90;;;;;;5073419;28;20423;-59
2023/08/16 08:34:41;;;;;;;1.53;1.20;;;25.30;13.90;;;;;;5074352;28;20728;-60
2023/08/16 08:37:08;;;;;;;1.90;1.20;;;25.40;1.00;;;;;;5071663;28;20419;-59
2023/08/16 08:39:35;;;;;;;1.85;1.30;;;25.50;1.00;;;;;;5068625;28;20473;-60
2023/08/16 08:42:04;;;;;;;1.65;1.13;;;25.50;99.90;;;;;;5072407;28;20416;-60
2023/08/16 08:44:32;;;;;;;1.88;1.30;;;25.50;1.00;;;;;;5073885;28;20923;-60
2023/08/16 08:47:05;;;;;;;1.90;1.40;;;25.60;1.00;;;;;;5071975;28;20447;-60
2023/08/16 08:49:33;;;;;;;1.30;1.10;;;25.70;99.90;;;;;;5083011;28;20438;-57
2023/08/16 08:52:03;;;;;;;2.13;1.20;;;25.80;99.90;;;;;;5086056;28;20500;-60
2023/08/16 08:54:30;;;;;;;2.80;1.30;;;25.90;99.90;;;;;;5084744;28;20450;-59
2023/08/16 08:56:59;;;;;;;2.08;1.23;;;26.10;2.10;;;;;;5074978;28;20465;-59
2023/08/16 08:59:28;;;;;;;2.50;1.40;;;26.30;1.00;;;;;;5072339;28;20694;-60
2023/08/16 09:01:55;;;;;;;2.35;1.52;;;26.50;1.00;;;;;;5079883;28;20609;-59
2023/08/16 09:04:22;;;;;;;1.80;1.40;;;26.60;99.90;;;;;;5080033;28;20545;-62
2023/08/16 09:06:50;;;;;;;2.03;1.60;;;26.80;99.90;;;;;;5094037;28;20516;-57
2023/08/16 09:09:19;;;;;;;1.90;1.30;;;26.90;1.00;;;;;;5090790;28;20471;-59
2023/08/16 09:11:46;;;;;;;2.20;1.20;;;27.00;99.90;;;;;;5099749;28;20430;-60
2023/08/16 09:14:13;;;;;;;1.70;1.13;;;27.10;99.90;;;;;;5078448;28;20435;-58
2023/08/16 09:16:43;;;;;;;2.78;1.30;;;26.90;99.90;;;;;;5079313;28;20512;-57
2023/08/16 09:19:14;;;;;;;2.13;1.30;;;26.90;99.90;;;;;;5075242;28;20443;-57
2023/08/16 09:21:41;;;;;;;3.40;1.20;;;27.00;99.90;;;;;;5074673;28;20455;-58
2023/08/16 09:24:07;;;;;;;2.22;1.10;;;27.10;99.90;;;;;;5078978;28;20432;-57
2023/08/16 09:26:37;;;;;;;1.50;1.10;;;27.30;71.80;;;;;;5083196;28;20725;-58
2023/08/16 09:29:05;;;;;;;2.90;1.50;;;27.40;1.00;;;;;;5091459;28;20532;-57
2023/08/16 09:31:38;;;;;;;2.53;1.20;;;27.50;1.00;;;;;;5094412;28;20425;-57
2023/08/16 09:34:05;;;;;;;1.73;1.50;;;27.60;1.00;;;;;;5079825;28;20945;-55
2023/08/16 09:36:36;;;;;;;2.20;1.65;;;27.60;99.90;;;;;;5094464;28;20418;-55
2023/08/16 09:39:04;;;;;;;2.30;1.60;;;27.60;99.90;;;;;;5071906;28;20923;-57
2023/08/16 09:41:32;;;;;;;2.70;1.50;;;27.70;99.90;;;;;;5072852;28;20459;-56
2023/08/16 09:44:08;;;;;;;1.80;1.20;;;27.80;99.90;;;;;;5071568;28;20583;-58
2023/08/16 09:46:36;;;;;;;1.70;1.30;;;27.90;99.90;;;;;;5080052;28;20442;-57
2023/08/16 09:49:07;;;;;;;1.50;1.30;;;27.90;99.90;;;;;;5089002;28;20702;-59
2023/08/16 09:51:36;;;;;;;1.50;1.20;;;28.00;1.00;;;;;;5093015;28;20461;-57
2023/08/16 09:54:08;;;;;;;1.52;1.10;;;27.90;1.00;;;;;;5088946;28;20503;-57
2023/08/16 09:56:35;;;;;;;1.73;1.23;;;27.90;1.00;;;;;;5078376;28;20429;-57
2023/08/16 09:59:03;;;;;;;1.60;1.30;;;27.90;1.00;;;;;;5084174;28;20442;-58
2023/08/16 10:01:35;;;;;;;1.75;1.30;;;27.70;1.00;;;;;;5078753;28;20433;-59
2023/08/16 10:04:03;;;;;;;2.47;1.40;;;27.90;1.10;;;;;;5091737;28;20761;-57
2023/08/16 10:06:34;;;;;;;2.83;1.50;;;28.10;1.00;;;;;;5092620;28;20459;-59
2023/08/16 10:09:05;;;;;;;2.00;1.30;;;28.40;1.00;;;;;;5090365;28;20417;-59
2023/08/16 10:11:34;;;;;;;2.20;1.10;;;28.60;1.00;;;;;;5091250;28;20461;-57
2023/08/16 10:14:06;;;;;;;1.90;1.13;;;28.90;1.00;;;;;;5092139;28;20561;-58
2023/08/16 10:16:36;;;;;;;3.28;1.20;;;29.20;1.00;;;;;;5091556;28;20442;-60
2023/08/16 10:19:08;;;;;;;1.90;1.10;;;29.30;99.90;;;;;;5092164;28;20532;-59
2023/08/16 10:21:40;;;;;;;1.70;1.20;;;29.30;99.90;;;;;;5080575;28;20444;-57
2023/08/16 10:24:13;;;;;;;2.60;1.50;;;29.30;99.90;;;;;;5079798;28;20922;-59
2023/08/16 10:26:42;;;;;;;1.90;1.23;;;29.40;99.90;;;;;;5086580;28;20422;-58
2023/08/16 10:29:15;;;;;;;1.40;1.20;;;29.50;99.90;;;;;;5089766;28;20434;-59
2023/08/16 10:31:47;;;;;;;2.50;1.50;;;29.50;99.90;;;;;;5093077;28;20521;-58
2023/08/16 10:34:16;;;;;;;2.70;1.40;;;29.80;99.90;;;;;;5079701;28;20437;-59
2023/08/16 10:36:43;;;;;;;2.53;1.20;;;30.00;99.90;;;;;;5076382;28;20439;-59
2023/08/16 10:39:22;;;;;;;2.00;1.60;;;30.00;99.90;;;;;;5073018;28;20435;-58
2023/08/16 10:41:50;;;;;;;1.83;1.50;;;30.10;99.90;;;;;;5073934;28;20832;-58
2023/08/16 10:44:26;;;;;;;1.90;1.30;;;30.20;99.90;;;;;;5079205;28;20441;-57
2023/08/16 10:46:55;;;;;;;1.80;1.20;;;29.80;99.90;;;;;;5090910;28;20426;-58
2023/08/16 10:49:22;;;;;;;1.92;1.33;;;29.70;99.90;;;;;;5081685;28;20441;-59
2023/08/16 10:51:50;;;;;;;1.80;1.40;;;30.00;99.90;;;;;;5093434;28;20434;-58
2023/08/16 10:54:20;;;;;;;1.50;1.30;;;30.60;99.90;;;;;;5087884;28;20436;-57
2023/08/16 10:56:48;;;;;;;2.65;1.33;;;30.90;99.90;;;;;;5089563;28;20410;-58
2023/08/16 10:59:16;;;;;;;2.00;1.40;;;31.10;59.60;;;;;;5084973;28;20456;-57
2023/08/16 11:01:47;;;;;;;2.13;1.27;;;31.30;41.50;;;;;;5083488;28;20461;-55
2023/08/16 11:04:15;;;;;;;1.40;1.20;;;31.40;20.80;;;;;;5073133;28;20470;-59
2023/08/16 11:06:46;;;;;;;1.70;1.20;;;31.70;7.80;;;;;;5086285;28;20493;-58
2023/08/16 11:09:13;;;;;;;1.40;1.20;;;32.00;1.00;;;;;;5089033;28;20432;-59
2023/08/16 11:11:45;;;;;;;2.60;1.30;;;32.00;1.00;;;;;;5098510;28;20437;-59
2023/08/16 11:14:13;;;;;;;2.03;1.50;;;32.30;1.00;;;;;;5074454;28;20435;-59
2023/08/16 11:16:40;;;;;;;1.40;1.20;;;32.20;1.00;;;;;;5074144;28;20433;-59
2023/08/16 11:19:08;;;;;;;1.50;1.30;;;32.10;1.00;;;;;;5076064;28;20885;-58
2023/08/16 11:21:38;;;;;;;2.17;1.33;;;32.30;1.00;;;;;;5089011;28;20551;-57
2023/08/16 11:24:06;;;;;;;1.50;1.10;;;32.30;1.00;;;;;;5076663;28;20480;-57
2023/08/16 11:26:39;;;;;;;1.30;1.10;;;32.20;1.00;;;;;;5081575;28;20731;-59
2023/08/16 11:29:06;;;;;;;1.70;1.10;;;32.30;1.00;;;;;;5076642;28;20443;-59
2023/08/16 11:31:34;;;;;;;2.30;1.20;;;32.30;1.00;;;;;;5087831;28;20475;-59
2023/08/16 11:34:01;;;;;;;1.43;1.20;;;32.20;1.00;;;;;;5075451;28;20438;-59
2023/08/16 11:36:28;;;;;;;2.15;1.40;;;32.00;1.00;;;;;;5075999;28;20477;-59
2023/08/16 11:38:57;;;;;;;1.70;1.20;;;32.40;1.00;;;;;;5074052;28;20706;-58
2023/08/16 11:41:24;;;;;;;1.50;1.30;;;32.50;1.00;;;;;;5077966;28;20492;-58
2023/08/16 11:43:59;;;;;;;2.00;1.30;;;32.50;1.00;;;;;;5075293;28;20466;-58
2023/08/16 11:46:26;;;;;;;2.10;1.30;;;32.40;1.00;;;;;;5078140;28;20427;-58
2023/08/16 11:48:53;;;;;;;1.48;1.20;;;32.30;1.00;;;;;;5076377;28;20478;-58
2023/08/16 11:51:20;;;;;;;1.60;1.30;;;32.50;1.00;;;;;;5080943;28;20603;-59
2023/08/16 11:53:47;;;;;;;2.10;1.30;;;32.70;1.00;;;;;;5075588;28;20467;-60
2023/08/16 11:56:16;;;;;;;2.00;1.27;;;32.70;1.00;;;;;;5075269;28;20461;-58
2023/08/16 11:58:44;;;;;;;1.50;1.20;;;32.50;1.00;;;;;;5075504;28;21049;-58
2023/08/16 12:01:14;;;;;;;1.60;1.20;;;32.20;1.00;;;;;;5073872;28;20492;-59
2023/08/16 12:03:41;;;;;;;1.70;1.20;;;32.10;1.00;;;;;;5074307;28;20493;-59
2023/08/16 12:06:09;;;;;;;2.00;1.10;;;32.00;1.00;;;;;;5086249;28;20775;-59
2023/08/16 12:08:36;;;;;;;1.40;1.27;;;32.50;1.00;;;;;;5095076;28;20802;-61
2023/08/16 12:11:04;;;;;;;1.30;1.15;;;32.80;1.00;;;;;;5079417;28;20735;-62
2023/08/16 12:13:36;;;;;;;1.50;1.27;;;32.50;1.00;;;;;;5075135;28;20423;-61
2023/08/16 12:16:03;;;;;;;2.90;1.20;;;32.10;1.00;;;;;;5088391;28;20516;-61
2023/08/16 12:18:30;;;;;;;1.80;1.30;;;32.30;1.00;;;;;;5077703;28;20439;-62
2023/08/16 12:20:57;;;;;;;1.80;1.70;;;32.50;1.00;;;;;;5074850;28;20526;-61
2023/08/16 12:23:24;;;;;;;1.50;1.10;;;32.50;1.00;;;;;;5089378;28;20722;-62
2023/08/16 12:25:51;;;;;;;2.90;1.20;;;31.90;1.00;;;;;;5096943;28;20785;-62
2023/08/16 12:28:19;;;;;;;1.50;1.10;;;31.80;1.00;;;;;;5091916;28;20423;-62
2023/08/16 12:30:47;;;;;;;1.50;1.30;;;31.80;1.00;;;;;;5092280;28;20432;-62
2023/08/16 12:33:16;;;;;;;2.67;1.30;;;32.00;1.00;;;;;;5087259;28;20709;-62
2023/08/16 12:35:42;;;;;;;3.10;2.17;;;31.80;1.00;;;;;;5082366;28;20467;-62
2023/08/16 12:38:10;;;;;;;1.58;1.20;;;31.60;1.00;;;;;;5083623;28;20435;-62
2023/08/16 12:40:38;;;;;;;1.70;1.20;;;31.90;1.00;;;;;;5074562;28;20514;-62
2023/08/16 12:43:05;;;;;;;2.20;1.50;;;32.00;1.00;;;;;;5074923;28;20786;-62
2023/08/16 12:45:32;;;;;;;1.20;1.10;;;32.00;1.00;;;;;;5094075;28;20800;-62
2023/08/16 12:48:01;;;;;;;2.00;1.70;;;31.90;1.00;;;;;;5087226;28;20435;-62
2023/08/16 12:50:28;;;;;;;1.75;1.15;;;31.80;1.00;;;;;;5074458;28;20428;-63
2023/08/16 12:52:55;;;;;;;1.40;1.30;;;31.50;1.00;;;;;;5078660;28;20869;-63
2023/08/16 12:55:22;;;;;;;1.30;1.10;;;31.40;1.00;;;;;;5088004;28;20430;-62